Portada
METAR-TAF:

METAR-TAF

Aeroports :

Chanute, Kansas, Estats Units d'Amèrica

latitud: 37-40-13N, longitud: 095-29-03W, altitud: 305 m

Observació

L'informe es va fer fa 30 minuts, a les 15:52 UTC
Vent 14 kt del Nord-Oest
Temperatura 17°C
Humitat 55%
Pressió 1020 hPa
Visibilitat: 16.1 km
Cel clar

METAR: KCNU 281552Z AUTO 32014KT 10SM CLR 17/08 A3012 RMK AO2 SLP195 T01720083

Hora: 11:22 (16:22 UTC)

Pronòstic

L'informe es va fer fa 4 hores i 56 minuts, a les 11:26 UTC
Pronòstic vàlid del 28 a les 12 UTC al 29 a les 12 UTC
Vent 8 kt del Oest/Nord-Oest
Visibilitat: 10 km
Escasses núvols a una alçada de 8000 ft
A partir de les 28 a les 1500 UTC
Vent 15 kt del Nord/Nord-Oest amb ràfegues de 30 kt
Visibilitat: 10 km
Núvols disperses a una alçada de 6000 ft
A partir de les 29 a les 0100 UTC
Vent 10 kt del Nord-Oest
Visibilitat: 10 km
Núvols disperses a una alçada de 7000 ft

TAF: KCNU 281126Z 2812/2912 30008KT P6SM FEW080 FM281500 33015G30KT P6SM SCT060 FM290100 32010KT P6SM SCT070

Observacions i pronòstics meteorològics de més de 4000 aeroports (METAR i TAF).

Les estacions disponibles són els punts grocs i vermells al mapa.

Posi el ratolí al punt desitjat per veure el nom de l'estació.

Feu clic per veure les observacions i els pronòstics meteorològics.

Per canviar el mapa: feu clic els botons verds amb una creu de color negre per apropar; al botó verd amb un guió per allunyar la imatge; o en les fletxes verdes per a mapes adjacents.


METAR-TAF: